createdAt,value
2019-05-09T00:02:55.625Z,76.96
2019-05-09T00:07:16.279Z,76.96
2019-05-09T00:11:36.615Z,76.67
2019-05-09T00:15:58.040Z,76.18
2019-05-09T00:20:18.128Z,76.04
2019-05-09T00:24:39.349Z,75.86
2019-05-09T00:29:00.667Z,76.82
2019-05-09T00:33:23.581Z,75.86
2019-05-09T00:37:44.229Z,76.07
2019-05-09T00:42:04.643Z,76.18
2019-05-09T00:46:25.256Z,76.18
2019-05-09T00:50:45.757Z,76.01
2019-05-09T00:55:06.478Z,74.92
2019-05-09T00:59:27.261Z,75.17
2019-05-09T01:03:48.730Z,75.91
2019-05-09T01:08:09.194Z,76.20
2019-05-09T01:12:29.653Z,75.94
2019-05-09T01:16:50.632Z,75.97
2019-05-09T01:21:13.224Z,75.17
2019-05-09T01:25:33.701Z,75.17
2019-05-09T01:29:54.027Z,75.24
2019-05-09T01:34:15.347Z,74.77
2019-05-09T01:38:36.494Z,74.77
2019-05-09T01:42:57.798Z,74.69
2019-05-09T01:47:17.905Z,75.26
2019-05-09T01:51:38.362Z,74.76
2019-05-09T01:55:59.716Z,75.13
2019-05-09T02:00:20.123Z,75.16
2019-05-09T02:04:41.301Z,75.48
2019-05-09T02:09:03.618Z,75.52
2019-05-09T02:13:24.277Z,74.89
2019-05-09T02:17:58.305Z,74.95
2019-05-09T02:22:08.540Z,74.64
2019-05-09T02:26:29.301Z,75.48
2019-05-09T02:30:50.112Z,75.44
2019-05-09T02:35:12.057Z,75.10
2019-05-09T02:39:32.503Z,75.61
2019-05-09T02:43:53.633Z,75.70
2019-05-09T02:48:14.202Z,75.44
2019-05-09T02:52:34.805Z,75.89
2019-05-09T02:56:58.106Z,75.71
2019-05-09T03:01:19.082Z,75.53
2019-05-09T03:05:39.645Z,75.11
2019-05-09T03:10:00.072Z,75.03
2019-05-09T03:14:20.429Z,75.48
2019-05-09T03:18:41.050Z,75.28
2019-05-09T03:23:03.470Z,75.28
2019-05-09T03:27:23.609Z,74.98
2019-05-09T03:31:44.798Z,75.43
2019-05-09T03:36:07.818Z,75.42
2019-05-09T03:40:29.234Z,75.42
2019-05-09T03:44:49.520Z,75.74
2019-05-09T03:49:10.532Z,75.89
2019-05-09T03:53:31.639Z,75.71
2019-05-09T03:57:52.842Z,76.12
2019-05-09T04:02:13.680Z,76.27
2019-05-09T04:06:34.425Z,76.17
2019-05-09T04:10:58.772Z,75.69
2019-05-09T04:15:19.756Z,75.49
2019-05-09T04:19:40.659Z,75.77
2019-05-09T04:24:01.702Z,75.71
2019-05-09T04:28:22.182Z,75.74
2019-05-09T04:32:43.281Z,76.39
2019-05-09T04:37:03.908Z,75.76
2019-05-09T04:41:25.410Z,75.35
2019-05-09T04:45:47.363Z,75.35
2019-05-09T04:50:08.473Z,74.94
2019-05-09T04:54:29.225Z,74.67
2019-05-09T04:58:50.423Z,74.58
2019-05-09T05:03:11.197Z,75.18
2019-05-09T05:07:31.292Z,74.45
2019-05-09T05:11:52.239Z,74.61
2019-05-09T05:16:12.718Z,74.47
2019-05-09T05:20:32.995Z,74.47
2019-05-09T05:24:59.754Z,73.70
2019-05-09T05:29:19.754Z,74.43
2019-05-09T05:33:41.099Z,74.12
2019-05-09T05:38:04.141Z,74.19
2019-05-09T05:42:28.297Z,74.14
2019-05-09T05:46:50.808Z,74.06
2019-05-09T05:51:12.187Z,74.35
2019-05-09T05:55:37.965Z,73.94
2019-05-09T05:59:58.700Z,73.76
2019-05-09T06:04:19.741Z,72.55
2019-05-09T06:08:40.704Z,72.55
2019-05-09T06:13:01.495Z,73.13
2019-05-09T06:17:43.346Z,72.18
2019-05-09T06:22:07.913Z,72.18
2019-05-09T06:26:29.411Z,71.67
2019-05-09T06:30:50.686Z,71.31
2019-05-09T06:35:14.344Z,70.41
2019-05-09T06:39:34.990Z,69.17
2019-05-09T06:44:11.042Z,69.21
2019-05-09T06:48:18.272Z,69.21
2019-05-09T06:52:39.035Z,68.10
2019-05-09T06:57:00.447Z,69.23
2019-05-09T07:01:21.010Z,68.54
2019-05-09T07:05:41.527Z,66.16
2019-05-09T07:10:01.715Z,66.08
2019-05-09T07:14:28.931Z,67.27
2019-05-09T07:18:44.993Z,66.34
2019-05-09T07:23:05.396Z,65.53
2019-05-09T07:27:28.544Z,66.07
2019-05-09T07:31:49.073Z,66.74
2019-05-09T07:36:10.142Z,66.22
2019-05-09T07:40:30.824Z,66.56
2019-05-09T07:44:52.595Z,63.91
2019-05-09T07:49:13.590Z,65.23
2019-05-09T07:53:33.755Z,64.40
2019-05-09T07:57:55.446Z,65.24
2019-05-09T08:02:17.746Z,64.24
2019-05-09T08:06:38.386Z,64.21
2019-05-09T08:10:59.871Z,64.30
2019-05-09T08:15:20.829Z,63.86
2019-05-09T08:19:41.682Z,63.65
2019-05-09T08:24:02.607Z,64.11
2019-05-09T08:28:23.773Z,63.40
2019-05-09T08:32:44.280Z,62.41
2019-05-09T08:37:04.818Z,61.65
2019-05-09T08:41:25.508Z,61.89
2019-05-09T08:45:48.343Z,60.17
2019-05-09T08:50:08.577Z,61.23
2019-05-09T08:54:29.225Z,61.74
2019-05-09T08:58:50.193Z,60.52
2019-05-09T09:03:10.338Z,59.97
2019-05-09T09:07:30.862Z,57.75
2019-05-09T09:11:51.456Z,57.21
2019-05-09T09:16:18.739Z,58.69
2019-05-09T09:20:34.450Z,60.12
2019-05-09T09:24:55.046Z,59.08
2019-05-09T09:29:17.738Z,57.87
2019-05-09T09:33:38.469Z,57.43
2019-05-09T09:37:59.914Z,56.44
2019-05-09T09:42:20.386Z,55.82
2019-05-09T09:46:41.254Z,56.36
2019-05-09T09:51:02.490Z,56.93
2019-05-09T09:55:23.224Z,55.97
2019-05-09T09:59:43.456Z,55.32
2019-05-09T10:04:19.063Z,56.23
2019-05-09T10:08:26.896Z,56.28
2019-05-09T10:12:49.418Z,56.66
2019-05-09T10:17:10.460Z,56.85
2019-05-09T10:21:31.040Z,57.62
2019-05-09T10:25:51.683Z,58.28
2019-05-09T10:30:12.232Z,59.04
2019-05-09T10:34:33.245Z,57.72
2019-05-09T10:38:53.428Z,56.83
2019-05-09T10:43:14.159Z,57.71
2019-05-09T10:47:34.904Z,58.04
2019-05-09T10:51:58.064Z,58.08
2019-05-09T10:56:19.033Z,58.53
2019-05-09T11:00:39.814Z,58.22
2019-05-09T11:05:00.547Z,57.16
2019-05-09T11:09:21.276Z,57.64
2019-05-09T11:13:41.480Z,55.49
2019-05-09T11:18:02.016Z,57.35
2019-05-09T11:22:23.593Z,56.77
2019-05-09T11:26:44.754Z,55.70
2019-05-09T11:31:07.885Z,57.37
2019-05-09T11:35:28.156Z,57.14
2019-05-09T11:39:48.443Z,57.86
2019-05-09T11:44:08.835Z,58.74
2019-05-09T11:48:30.477Z,58.72
2019-05-09T11:52:51.004Z,59.05
2019-05-09T11:57:12.176Z,60.05
2019-05-09T12:01:32.627Z,59.80
2019-05-09T12:05:52.824Z,59.46
2019-05-09T12:10:13.532Z,59.58
2019-05-09T12:14:34.219Z,59.06
2019-05-09T12:18:54.498Z,56.28
2019-05-09T12:23:14.983Z,55.42
2019-05-09T12:27:36.136Z,53.66
2019-05-09T12:31:56.524Z,52.67
2019-05-09T12:36:19.126Z,53.09
2019-05-09T12:40:39.874Z,52.17
2019-05-09T12:45:00.347Z,51.84
2019-05-09T12:49:20.780Z,50.95
2019-05-09T12:53:41.809Z,50.80
2019-05-09T12:58:02.511Z,50.35
2019-05-09T13:02:23.655Z,51.03
2019-05-09T13:06:44.081Z,49.79
2019-05-09T13:11:04.804Z,50.93
2019-05-09T13:15:30.559Z,52.93
2019-05-09T13:19:49.107Z,53.66
2019-05-09T13:24:10.203Z,51.65
2019-05-09T13:28:31.633Z,51.56
2019-05-09T13:32:52.246Z,51.63
2019-05-09T13:37:13.106Z,52.11
2019-05-09T13:41:33.406Z,53.82
2019-05-09T13:45:54.482Z,50.84
2019-05-09T13:50:15.011Z,49.03
2019-05-09T13:54:38.061Z,52.02
2019-05-09T13:58:58.386Z,52.53
2019-05-09T14:03:19.390Z,53.33
2019-05-09T14:07:40.393Z,53.04
2019-05-09T14:12:01.724Z,53.08
2019-05-09T14:16:22.605Z,53.15
2019-05-09T14:20:43.133Z,53.59
2019-05-09T14:25:03.864Z,54.70
2019-05-09T14:29:25.153Z,54.44
2019-05-09T14:33:47.590Z,55.01
2019-05-09T14:38:09.268Z,54.81
2019-05-09T14:42:30.634Z,56.40
2019-05-09T14:46:52.518Z,57.12
2019-05-09T14:51:14.133Z,56.28
2019-05-09T14:55:34.779Z,56.02
2019-05-09T14:59:58.474Z,55.36
2019-05-09T15:04:19.324Z,56.41
2019-05-09T15:08:39.786Z,56.64
2019-05-09T15:13:01.451Z,56.51
2019-05-09T15:17:22.510Z,57.21
2019-05-09T15:21:43.925Z,55.84
2019-05-09T15:26:04.619Z,54.42
2019-05-09T15:30:28.418Z,53.69
2019-05-09T15:34:47.928Z,51.99
2019-05-09T15:39:08.761Z,52.63
2019-05-09T15:43:29.671Z,52.86
2019-05-09T15:47:50.616Z,52.86
2019-05-09T15:52:11.936Z,52.34
2019-05-09T15:56:32.843Z,52.14
2019-05-09T16:00:53.886Z,50.99
2019-05-09T16:05:14.391Z,50.48
2019-05-09T16:09:37.965Z,50.70
2019-05-09T16:13:58.958Z,50.17
2019-05-09T16:18:20.188Z,50.95
2019-05-09T16:22:41.916Z,52.11
2019-05-09T16:27:03.518Z,52.75
2019-05-09T16:31:24.193Z,52.84
2019-05-09T16:35:45.643Z,52.21
2019-05-09T16:40:08.447Z,51.94
2019-05-09T16:44:29.778Z,51.81
2019-05-09T16:48:50.131Z,50.54
2019-05-09T16:53:11.118Z,47.79
2019-05-09T16:57:32.226Z,47.96
2019-05-09T17:01:52.677Z,48.38
2019-05-09T17:06:12.773Z,46.71
2019-05-09T17:10:33.889Z,44.84
2019-05-09T17:14:54.343Z,44.99
2019-05-09T17:19:19.242Z,43.99
2019-05-09T17:23:38.440Z,43.59
2019-05-09T17:27:59.589Z,45.05
2019-05-09T17:32:20.713Z,45.34
2019-05-09T17:36:41.126Z,47.05
2019-05-09T17:41:01.418Z,47.50
2019-05-09T17:45:21.965Z,49.73
2019-05-09T17:49:43.197Z,51.71
2019-05-09T17:54:03.923Z,53.46
2019-05-09T17:58:30.486Z,54.16
2019-05-09T18:02:48.597Z,55.08
2019-05-09T18:07:09.066Z,56.35
2019-05-09T18:11:29.747Z,57.46
2019-05-09T18:15:50.178Z,57.95
2019-05-09T18:20:11.178Z,58.71
2019-05-09T18:24:37.740Z,59.34
2019-05-09T18:29:01.718Z,60.03
2019-05-09T18:33:21.717Z,60.29
2019-05-09T18:37:42.042Z,60.86
2019-05-09T18:42:03.566Z,60.77
2019-05-09T18:46:24.121Z,60.84
2019-05-09T18:50:45.103Z,63.17
2019-05-09T18:55:06.050Z,66.35
2019-05-09T18:59:27.011Z,66.87
2019-05-09T19:03:47.758Z,69.70
2019-05-09T19:08:08.148Z,70.17
2019-05-09T19:12:28.481Z,70.58
2019-05-09T19:16:48.698Z,70.53
2019-05-09T19:21:09.128Z,70.20
2019-05-09T19:25:29.657Z,70.46
2019-05-09T19:29:50.042Z,70.19
2019-05-09T19:34:10.472Z,71.67
2019-05-09T19:38:31.030Z,71.44
2019-05-09T19:42:51.694Z,71.51
2019-05-09T19:47:12.534Z,70.74
2019-05-09T19:51:33.524Z,72.38
2019-05-09T19:55:54.964Z,71.89
2019-05-09T20:00:18.856Z,72.14
2019-05-09T20:04:39.881Z,72.50
2019-05-09T20:09:01.038Z,72.51
2019-05-09T20:13:21.715Z,72.84
2019-05-09T20:17:42.003Z,72.93
2019-05-09T20:22:02.914Z,72.65
2019-05-09T20:26:23.743Z,73.28
2019-05-09T20:30:44.696Z,73.04
2019-05-09T20:35:05.615Z,73.67
2019-05-09T20:39:26.366Z,73.87
2019-05-09T20:43:46.823Z,73.73
2019-05-09T20:48:07.209Z,73.84
2019-05-09T20:52:27.764Z,74.19
2019-05-09T20:56:48.832Z,74.57
2019-05-09T21:01:09.343Z,74.69
2019-05-09T21:05:30.097Z,74.51
2019-05-09T21:09:50.992Z,74.60
2019-05-09T21:14:11.524Z,74.45
2019-05-09T21:18:32.207Z,74.90
2019-05-09T21:22:53.052Z,74.86
2019-05-09T21:27:13.797Z,74.19
2019-05-09T21:31:35.031Z,74.70
2019-05-09T21:35:55.472Z,75.08
2019-05-09T21:40:16.353Z,76.00
2019-05-09T21:44:36.892Z,76.12
2019-05-09T21:48:57.932Z,76.23
2019-05-09T21:53:18.794Z,76.50
2019-05-09T21:57:38.760Z,76.33
2019-05-09T22:01:59.834Z,76.33
2019-05-09T22:06:20.646Z,75.00
2019-05-09T22:10:41.243Z,75.28
2019-05-09T22:15:04.040Z,75.91
2019-05-09T22:19:25.155Z,75.82
2019-05-09T22:23:56.468Z,76.04
2019-05-09T22:28:13.245Z,75.86
2019-05-09T22:32:33.550Z,75.87
2019-05-09T22:36:55.108Z,76.08
2019-05-09T22:41:15.852Z,76.12
2019-05-09T22:45:36.111Z,76.12
2019-05-09T22:49:56.238Z,75.97
2019-05-09T22:54:16.371Z,76.46
2019-05-09T22:58:36.475Z,76.01
2019-05-09T23:02:58.107Z,76.05
2019-05-09T23:07:18.812Z,75.73
2019-05-09T23:11:39.043Z,75.73
2019-05-09T23:15:59.797Z,75.80
2019-05-09T23:20:20.374Z,75.80
2019-05-09T23:24:44.406Z,75.50
2019-05-09T23:29:03.572Z,75.63
2019-05-09T23:33:24.191Z,74.56
2019-05-09T23:37:44.898Z,74.77
2019-05-09T23:42:05.821Z,74.45
2019-05-09T23:46:26.392Z,74.39
2019-05-09T23:50:47.033Z,74.93
2019-05-09T23:55:07.856Z,74.52
2019-05-09T23:59:28.447Z,74.02
